sensor_id;sensor_type;location;lat;lon;timestamp;P1;durP1;ratioP1;P2;durP2;ratioP2
24739;SDS011;45234;48.148;17.128;2024-01-30T00:01:46;39.88;;;19.50;;
24739;SDS011;45234;48.148;17.128;2024-01-30T00:04:14;39.85;;;18.92;;
24739;SDS011;45234;48.148;17.128;2024-01-30T00:06:42;36.55;;;18.92;;
24739;SDS011;45234;48.148;17.128;2024-01-30T00:09:10;34.70;;;19.58;;
24739;SDS011;45234;48.148;17.128;2024-01-30T00:11:37;35.97;;;20.30;;
24739;SDS011;45234;48.148;17.128;2024-01-30T00:14:06;34.38;;;19.63;;
24739;SDS011;45234;48.148;17.128;2024-01-30T00:16:33;38.40;;;19.52;;
24739;SDS011;45234;48.148;17.128;2024-01-30T00:19:00;37.40;;;19.17;;
24739;SDS011;45234;48.148;17.128;2024-01-30T00:21:28;37.17;;;18.55;;
24739;SDS011;45234;48.148;17.128;2024-01-30T00:23:55;36.60;;;18.52;;
24739;SDS011;45234;48.148;17.128;2024-01-30T00:26:21;43.92;;;20.42;;
24739;SDS011;45234;48.148;17.128;2024-01-30T00:28:48;38.80;;;19.73;;
24739;SDS011;45234;48.148;17.128;2024-01-30T00:31:15;36.65;;;19.40;;
24739;SDS011;45234;48.148;17.128;2024-01-30T00:33:43;43.03;;;19.50;;
24739;SDS011;45234;48.148;17.128;2024-01-30T00:36:10;35.22;;;18.17;;
24739;SDS011;45234;48.148;17.128;2024-01-30T00:38:37;40.88;;;19.67;;
24739;SDS011;45234;48.148;17.128;2024-01-30T00:41:04;35.55;;;19.15;;
24739;SDS011;45234;48.148;17.128;2024-01-30T00:43:30;38.00;;;20.27;;
24739;SDS011;45234;48.148;17.128;2024-01-30T00:45:58;35.92;;;19.80;;
24739;SDS011;45234;48.148;17.128;2024-01-30T00:48:25;36.25;;;19.42;;
24739;SDS011;45234;48.148;17.128;2024-01-30T00:50:52;40.08;;;20.88;;
24739;SDS011;45234;48.148;17.128;2024-01-30T00:53:19;38.53;;;21.50;;
24739;SDS011;45234;48.148;17.128;2024-01-30T00:55:46;38.42;;;20.80;;
24739;SDS011;45234;48.148;17.128;2024-01-30T00:58:13;36.50;;;19.98;;
24739;SDS011;45234;48.148;17.128;2024-01-30T01:00:40;44.22;;;20.98;;
24739;SDS011;45234;48.148;17.128;2024-01-30T01:03:07;45.13;;;22.02;;
24739;SDS011;45234;48.148;17.128;2024-01-30T01:05:34;41.25;;;22.23;;
24739;SDS011;45234;48.148;17.128;2024-01-30T01:08:01;48.08;;;24.30;;
24739;SDS011;45234;48.148;17.128;2024-01-30T01:10:28;50.90;;;25.05;;
24739;SDS011;45234;48.148;17.128;2024-01-30T01:12:55;46.42;;;23.65;;
24739;SDS011;45234;48.148;17.128;2024-01-30T01:15:23;51.00;;;26.08;;
24739;SDS011;45234;48.148;17.128;2024-01-30T01:17:54;54.13;;;25.52;;
24739;SDS011;45234;48.148;17.128;2024-01-30T01:20:21;48.35;;;25.00;;
24739;SDS011;45234;48.148;17.128;2024-01-30T01:22:48;49.60;;;24.60;;
24739;SDS011;45234;48.148;17.128;2024-01-30T01:25:15;46.33;;;23.58;;
24739;SDS011;45234;48.148;17.128;2024-01-30T01:27:42;51.53;;;24.60;;
24739;SDS011;45234;48.148;17.128;2024-01-30T01:30:17;47.22;;;23.88;;
24739;SDS011;45234;48.148;17.128;2024-01-30T01:32:51;43.88;;;23.90;;
24739;SDS011;45234;48.148;17.128;2024-01-30T01:35:23;49.17;;;24.23;;
24739;SDS011;45234;48.148;17.128;2024-01-30T01:37:52;52.33;;;25.15;;
24739;SDS011;45234;48.148;17.128;2024-01-30T01:40:24;42.33;;;22.77;;
24739;SDS011;45234;48.148;17.128;2024-01-30T01:42:52;46.33;;;23.77;;
24739;SDS011;45234;48.148;17.128;2024-01-30T01:45:20;50.80;;;24.13;;
24739;SDS011;45234;48.148;17.128;2024-01-30T01:47:49;45.03;;;23.40;;
24739;SDS011;45234;48.148;17.128;2024-01-30T01:50:18;45.65;;;22.95;;
24739;SDS011;45234;48.148;17.128;2024-01-30T01:52:47;42.22;;;21.77;;
24739;SDS011;45234;48.148;17.128;2024-01-30T01:55:14;44.85;;;21.63;;
24739;SDS011;45234;48.148;17.128;2024-01-30T01:57:44;47.38;;;22.05;;
24739;SDS011;45234;48.148;17.128;2024-01-30T02:00:12;35.95;;;19.88;;
24739;SDS011;45234;48.148;17.128;2024-01-30T02:02:39;42.38;;;21.33;;
24739;SDS011;45234;48.148;17.128;2024-01-30T02:05:07;41.17;;;21.10;;
24739;SDS011;45234;48.148;17.128;2024-01-30T02:07:35;38.92;;;19.92;;
24739;SDS011;45234;48.148;17.128;2024-01-30T02:10:02;34.90;;;19.67;;
24739;SDS011;45234;48.148;17.128;2024-01-30T02:12:32;38.65;;;19.90;;
24739;SDS011;45234;48.148;17.128;2024-01-30T02:14:59;37.75;;;19.27;;
24739;SDS011;45234;48.148;17.128;2024-01-30T02:17:31;33.33;;;18.27;;
24739;SDS011;45234;48.148;17.128;2024-01-30T02:19:58;36.35;;;18.48;;
24739;SDS011;45234;48.148;17.128;2024-01-30T02:22:25;39.45;;;21.65;;
24739;SDS011;45234;48.148;17.128;2024-01-30T02:24:52;38.08;;;20.10;;
24739;SDS011;45234;48.148;17.128;2024-01-30T02:27:20;37.85;;;20.40;;
24739;SDS011;45234;48.148;17.128;2024-01-30T02:29:46;34.70;;;18.27;;
24739;SDS011;45234;48.148;17.128;2024-01-30T02:32:13;38.42;;;19.63;;
24739;SDS011;45234;48.148;17.128;2024-01-30T02:34:40;36.85;;;19.45;;
24739;SDS011;45234;48.148;17.128;2024-01-30T02:37:07;37.25;;;19.27;;
24739;SDS011;45234;48.148;17.128;2024-01-30T02:39:34;36.38;;;18.67;;
24739;SDS011;45234;48.148;17.128;2024-01-30T02:42:01;35.22;;;19.17;;
24739;SDS011;45234;48.148;17.128;2024-01-30T02:44:28;33.95;;;19.45;;
24739;SDS011;45234;48.148;17.128;2024-01-30T02:46:55;40.15;;;19.27;;
24739;SDS011;45234;48.148;17.128;2024-01-30T02:49:22;35.50;;;18.98;;
24739;SDS011;45234;48.148;17.128;2024-01-30T02:51:49;37.08;;;18.30;;
24739;SDS011;45234;48.148;17.128;2024-01-30T02:54:17;37.35;;;18.45;;
24739;SDS011;45234;48.148;17.128;2024-01-30T02:56:44;36.50;;;19.20;;
24739;SDS011;45234;48.148;17.128;2024-01-30T02:59:11;35.03;;;17.90;;
24739;SDS011;45234;48.148;17.128;2024-01-30T03:01:44;35.63;;;18.58;;
24739;SDS011;45234;48.148;17.128;2024-01-30T03:04:12;32.58;;;18.40;;
24739;SDS011;45234;48.148;17.128;2024-01-30T03:06:44;37.83;;;20.23;;
24739;SDS011;45234;48.148;17.128;2024-01-30T03:09:13;31.42;;;18.70;;
24739;SDS011;45234;48.148;17.128;2024-01-30T03:11:41;36.75;;;18.95;;
24739;SDS011;45234;48.148;17.128;2024-01-30T03:14:08;35.90;;;19.45;;
24739;SDS011;45234;48.148;17.128;2024-01-30T03:16:38;39.20;;;19.73;;
24739;SDS011;45234;48.148;17.128;2024-01-30T03:19:06;32.78;;;18.33;;
24739;SDS011;45234;48.148;17.128;2024-01-30T03:21:35;39.15;;;19.30;;
24739;SDS011;45234;48.148;17.128;2024-01-30T03:24:01;36.17;;;18.38;;
24739;SDS011;45234;48.148;17.128;2024-01-30T03:26:29;39.95;;;18.88;;
24739;SDS011;45234;48.148;17.128;2024-01-30T03:28:55;30.35;;;18.35;;
24739;SDS011;45234;48.148;17.128;2024-01-30T03:31:22;37.05;;;19.38;;
24739;SDS011;45234;48.148;17.128;2024-01-30T03:33:50;38.70;;;19.65;;
24739;SDS011;45234;48.148;17.128;2024-01-30T03:36:17;39.00;;;20.17;;
24739;SDS011;45234;48.148;17.128;2024-01-30T03:38:44;33.88;;;18.33;;
24739;SDS011;45234;48.148;17.128;2024-01-30T03:41:11;28.67;;;16.58;;
24739;SDS011;45234;48.148;17.128;2024-01-30T03:43:38;34.05;;;18.08;;
24739;SDS011;45234;48.148;17.128;2024-01-30T03:46:04;35.65;;;19.38;;
24739;SDS011;45234;48.148;17.128;2024-01-30T03:48:31;32.45;;;17.67;;
24739;SDS011;45234;48.148;17.128;2024-01-30T03:50:59;38.10;;;20.05;;
24739;SDS011;45234;48.148;17.128;2024-01-30T03:53:26;38.42;;;18.75;;
24739;SDS011;45234;48.148;17.128;2024-01-30T03:55:53;32.53;;;18.48;;
24739;SDS011;45234;48.148;17.128;2024-01-30T03:58:20;34.33;;;18.80;;
24739;SDS011;45234;48.148;17.128;2024-01-30T04:00:47;34.42;;;17.83;;
24739;SDS011;45234;48.148;17.128;2024-01-30T04:03:16;32.85;;;18.90;;
24739;SDS011;45234;48.148;17.128;2024-01-30T04:05:43;34.83;;;18.77;;
24739;SDS011;45234;48.148;17.128;2024-01-30T04:08:10;33.85;;;18.60;;
24739;SDS011;45234;48.148;17.128;2024-01-30T04:10:37;36.45;;;18.98;;
24739;SDS011;45234;48.148;17.128;2024-01-30T04:13:04;38.50;;;18.30;;
24739;SDS011;45234;48.148;17.128;2024-01-30T04:15:35;37.47;;;19.00;;
24739;SDS011;45234;48.148;17.128;2024-01-30T04:18:02;33.88;;;18.35;;
24739;SDS011;45234;48.148;17.128;2024-01-30T04:20:30;40.10;;;19.17;;
24739;SDS011;45234;48.148;17.128;2024-01-30T04:22:57;36.05;;;19.27;;
24739;SDS011;45234;48.148;17.128;2024-01-30T04:25:24;42.03;;;19.23;;
24739;SDS011;45234;48.148;17.128;2024-01-30T04:27:51;32.70;;;18.15;;
24739;SDS011;45234;48.148;17.128;2024-01-30T04:30:17;40.70;;;19.13;;
24739;SDS011;45234;48.148;17.128;2024-01-30T04:32:44;35.05;;;18.38;;
24739;SDS011;45234;48.148;17.128;2024-01-30T04:35:11;39.53;;;18.83;;
24739;SDS011;45234;48.148;17.128;2024-01-30T04:37:38;33.40;;;18.48;;
24739;SDS011;45234;48.148;17.128;2024-01-30T04:40:05;31.27;;;17.83;;
24739;SDS011;45234;48.148;17.128;2024-01-30T04:42:34;40.92;;;19.88;;
24739;SDS011;45234;48.148;17.128;2024-01-30T04:45:01;37.78;;;19.10;;
24739;SDS011;45234;48.148;17.128;2024-01-30T04:47:29;33.70;;;19.23;;
24739;SDS011;45234;48.148;17.128;2024-01-30T04:49:56;35.33;;;18.88;;
24739;SDS011;45234;48.148;17.128;2024-01-30T04:52:23;36.80;;;18.80;;
24739;SDS011;45234;48.148;17.128;2024-01-30T04:54:50;32.75;;;18.23;;
24739;SDS011;45234;48.148;17.128;2024-01-30T04:57:17;40.17;;;18.88;;
24739;SDS011;45234;48.148;17.128;2024-01-30T04:59:44;34.42;;;17.92;;
24739;SDS011;45234;48.148;17.128;2024-01-30T05:02:11;34.53;;;17.95;;
24739;SDS011;45234;48.148;17.128;2024-01-30T05:04:38;32.97;;;18.23;;
24739;SDS011;45234;48.148;17.128;2024-01-30T05:07:06;32.88;;;18.08;;
24739;SDS011;45234;48.148;17.128;2024-01-30T05:09:33;31.95;;;18.70;;
24739;SDS011;45234;48.148;17.128;2024-01-30T05:12:00;35.85;;;17.58;;
24739;SDS011;45234;48.148;17.128;2024-01-30T05:14:27;34.17;;;18.75;;
24739;SDS011;45234;48.148;17.128;2024-01-30T05:16:54;36.17;;;17.15;;
24739;SDS011;45234;48.148;17.128;2024-01-30T05:19:21;38.25;;;19.60;;
24739;SDS011;45234;48.148;17.128;2024-01-30T05:21:49;35.28;;;18.90;;
24739;SDS011;45234;48.148;17.128;2024-01-30T05:24:16;35.78;;;19.08;;
24739;SDS011;45234;48.148;17.128;2024-01-30T05:26:46;33.47;;;18.92;;
24739;SDS011;45234;48.148;17.128;2024-01-30T05:29:14;34.03;;;18.08;;
24739;SDS011;45234;48.148;17.128;2024-01-30T05:31:40;38.30;;;18.50;;
24739;SDS011;45234;48.148;17.128;2024-01-30T05:34:07;39.40;;;20.60;;
24739;SDS011;45234;48.148;17.128;2024-01-30T05:36:35;36.42;;;19.58;;
24739;SDS011;45234;48.148;17.128;2024-01-30T05:39:01;33.22;;;18.60;;
24739;SDS011;45234;48.148;17.128;2024-01-30T05:41:31;40.97;;;19.60;;
24739;SDS011;45234;48.148;17.128;2024-01-30T05:43:58;37.15;;;20.50;;
24739;SDS011;45234;48.148;17.128;2024-01-30T05:46:25;38.90;;;20.13;;
24739;SDS011;45234;48.148;17.128;2024-01-30T05:48:52;39.30;;;19.63;;
24739;SDS011;45234;48.148;17.128;2024-01-30T05:51:19;39.67;;;19.55;;
24739;SDS011;45234;48.148;17.128;2024-01-30T05:53:46;40.50;;;20.60;;
24739;SDS011;45234;48.148;17.128;2024-01-30T05:56:13;37.00;;;19.15;;
24739;SDS011;45234;48.148;17.128;2024-01-30T05:58:40;41.58;;;20.75;;
24739;SDS011;45234;48.148;17.128;2024-01-30T06:01:09;35.92;;;20.13;;
24739;SDS011;45234;48.148;17.128;2024-01-30T06:03:36;35.80;;;19.90;;
24739;SDS011;45234;48.148;17.128;2024-01-30T06:06:04;38.15;;;18.25;;
24739;SDS011;45234;48.148;17.128;2024-01-30T06:08:31;36.35;;;17.80;;
24739;SDS011;45234;48.148;17.128;2024-01-30T06:10:59;38.30;;;19.38;;
24739;SDS011;45234;48.148;17.128;2024-01-30T06:13:26;40.95;;;19.38;;
24739;SDS011;45234;48.148;17.128;2024-01-30T06:15:53;39.58;;;19.00;;
24739;SDS011;45234;48.148;17.128;2024-01-30T06:18:20;37.95;;;19.67;;
24739;SDS011;45234;48.148;17.128;2024-01-30T06:20:47;39.15;;;19.20;;
24739;SDS011;45234;48.148;17.128;2024-01-30T06:23:14;38.35;;;20.35;;
24739;SDS011;45234;48.148;17.128;2024-01-30T06:25:41;33.42;;;19.08;;
24739;SDS011;45234;48.148;17.128;2024-01-30T06:28:08;34.55;;;19.42;;
24739;SDS011;45234;48.148;17.128;2024-01-30T06:30:35;43.15;;;19.85;;
24739;SDS011;45234;48.148;17.128;2024-01-30T06:33:02;35.85;;;19.50;;
24739;SDS011;45234;48.148;17.128;2024-01-30T06:35:29;35.67;;;19.05;;
24739;SDS011;45234;48.148;17.128;2024-01-30T06:37:56;38.65;;;19.33;;
24739;SDS011;45234;48.148;17.128;2024-01-30T06:40:22;35.58;;;18.88;;
24739;SDS011;45234;48.148;17.128;2024-01-30T06:42:50;35.78;;;18.98;;
24739;SDS011;45234;48.148;17.128;2024-01-30T06:45:17;29.83;;;18.38;;
24739;SDS011;45234;48.148;17.128;2024-01-30T06:47:44;35.13;;;19.42;;
24739;SDS011;45234;48.148;17.128;2024-01-30T06:50:11;35.88;;;17.90;;
24739;SDS011;45234;48.148;17.128;2024-01-30T06:52:38;34.75;;;18.10;;
24739;SDS011;45234;48.148;17.128;2024-01-30T06:55:05;34.08;;;18.98;;
24739;SDS011;45234;48.148;17.128;2024-01-30T06:57:33;33.63;;;18.50;;
24739;SDS011;45234;48.148;17.128;2024-01-30T06:59:59;39.60;;;19.80;;
24739;SDS011;45234;48.148;17.128;2024-01-30T07:02:29;29.98;;;17.85;;
24739;SDS011;45234;48.148;17.128;2024-01-30T07:04:56;34.38;;;18.98;;
24739;SDS011;45234;48.148;17.128;2024-01-30T07:07:23;30.73;;;18.00;;
24739;SDS011;45234;48.148;17.128;2024-01-30T07:09:51;31.05;;;16.98;;
24739;SDS011;45234;48.148;17.128;2024-01-30T07:12:23;31.33;;;17.48;;
24739;SDS011;45234;48.148;17.128;2024-01-30T07:14:52;29.27;;;15.55;;
24739;SDS011;45234;48.148;17.128;2024-01-30T07:17:19;28.58;;;17.02;;
24739;SDS011;45234;48.148;17.128;2024-01-30T07:19:46;27.55;;;16.23;;
24739;SDS011;45234;48.148;17.128;2024-01-30T07:22:13;27.50;;;16.50;;
24739;SDS011;45234;48.148;17.128;2024-01-30T07:24:43;27.17;;;15.95;;
24739;SDS011;45234;48.148;17.128;2024-01-30T07:27:15;28.42;;;17.90;;
24739;SDS011;45234;48.148;17.128;2024-01-30T07:29:44;28.02;;;16.45;;
24739;SDS011;45234;48.148;17.128;2024-01-30T07:32:11;30.15;;;17.00;;
24739;SDS011;45234;48.148;17.128;2024-01-30T07:34:38;29.10;;;18.80;;
24739;SDS011;45234;48.148;17.128;2024-01-30T07:37:18;30.10;;;17.48;;
24739;SDS011;45234;48.148;17.128;2024-01-30T07:39:45;30.02;;;15.95;;
24739;SDS011;45234;48.148;17.128;2024-01-30T07:42:12;27.17;;;16.70;;
24739;SDS011;45234;48.148;17.128;2024-01-30T07:44:39;29.08;;;16.38;;
24739;SDS011;45234;48.148;17.128;2024-01-30T07:47:06;28.02;;;15.57;;
24739;SDS011;45234;48.148;17.128;2024-01-30T07:49:34;29.38;;;15.70;;
24739;SDS011;45234;48.148;17.128;2024-01-30T07:52:01;31.17;;;15.88;;
24739;SDS011;45234;48.148;17.128;2024-01-30T07:54:32;26.60;;;16.40;;
24739;SDS011;45234;48.148;17.128;2024-01-30T07:57:00;32.10;;;17.05;;
24739;SDS011;45234;48.148;17.128;2024-01-30T07:59:27;26.95;;;16.50;;
24739;SDS011;45234;48.148;17.128;2024-01-30T08:01:54;26.05;;;15.82;;
24739;SDS011;45234;48.148;17.128;2024-01-30T08:04:21;30.52;;;16.65;;
24739;SDS011;45234;48.148;17.128;2024-01-30T08:06:48;26.08;;;16.70;;
24739;SDS011;45234;48.148;17.128;2024-01-30T08:09:15;28.08;;;17.23;;
24739;SDS011;45234;48.148;17.128;2024-01-30T08:11:42;29.30;;;15.85;;
24739;SDS011;45234;48.148;17.128;2024-01-30T08:14:09;25.17;;;15.98;;
24739;SDS011;45234;48.148;17.128;2024-01-30T08:16:36;30.90;;;17.00;;
24739;SDS011;45234;48.148;17.128;2024-01-30T08:19:03;28.55;;;17.25;;
24739;SDS011;45234;48.148;17.128;2024-01-30T08:21:30;29.05;;;16.85;;
24739;SDS011;45234;48.148;17.128;2024-01-30T08:24:05;29.00;;;16.48;;
24739;SDS011;45234;48.148;17.128;2024-01-30T08:26:32;29.58;;;16.65;;
24739;SDS011;45234;48.148;17.128;2024-01-30T08:29:00;29.10;;;17.00;;
24739;SDS011;45234;48.148;17.128;2024-01-30T08:31:28;30.67;;;17.13;;
24739;SDS011;45234;48.148;17.128;2024-01-30T08:33:55;26.38;;;16.40;;
24739;SDS011;45234;48.148;17.128;2024-01-30T08:36:22;27.10;;;17.58;;
24739;SDS011;45234;48.148;17.128;2024-01-30T08:38:49;30.90;;;16.33;;
24739;SDS011;45234;48.148;17.128;2024-01-30T08:41:19;25.08;;;16.02;;
24739;SDS011;45234;48.148;17.128;2024-01-30T08:43:45;34.22;;;18.13;;
24739;SDS011;45234;48.148;17.128;2024-01-30T08:46:12;26.00;;;17.15;;
24739;SDS011;45234;48.148;17.128;2024-01-30T08:48:42;26.90;;;17.38;;
24739;SDS011;45234;48.148;17.128;2024-01-30T08:51:11;26.27;;;16.35;;
24739;SDS011;45234;48.148;17.128;2024-01-30T08:53:39;32.60;;;16.80;;
24739;SDS011;45234;48.148;17.128;2024-01-30T08:56:06;27.08;;;17.08;;
24739;SDS011;45234;48.148;17.128;2024-01-30T08:58:33;28.70;;;17.23;;
24739;SDS011;45234;48.148;17.128;2024-01-30T09:01:00;29.40;;;17.02;;
24739;SDS011;45234;48.148;17.128;2024-01-30T09:03:29;23.92;;;15.70;;
24739;SDS011;45234;48.148;17.128;2024-01-30T09:05:57;25.33;;;15.77;;
24739;SDS011;45234;48.148;17.128;2024-01-30T09:08:23;27.70;;;16.55;;
24739;SDS011;45234;48.148;17.128;2024-01-30T09:10:50;31.55;;;18.23;;
24739;SDS011;45234;48.148;17.128;2024-01-30T09:13:17;28.23;;;17.40;;
24739;SDS011;45234;48.148;17.128;2024-01-30T09:15:45;30.27;;;17.02;;
24739;SDS011;45234;48.148;17.128;2024-01-30T09:18:12;29.10;;;16.27;;
24739;SDS011;45234;48.148;17.128;2024-01-30T09:20:39;29.00;;;17.10;;
24739;SDS011;45234;48.148;17.128;2024-01-30T09:23:07;26.38;;;16.92;;
24739;SDS011;45234;48.148;17.128;2024-01-30T09:25:34;26.52;;;16.95;;
24739;SDS011;45234;48.148;17.128;2024-01-30T09:28:01;31.88;;;16.80;;
24739;SDS011;45234;48.148;17.128;2024-01-30T09:30:28;28.55;;;16.85;;
24739;SDS011;45234;48.148;17.128;2024-01-30T09:32:55;28.63;;;16.27;;
24739;SDS011;45234;48.148;17.128;2024-01-30T09:35:22;33.15;;;16.40;;
24739;SDS011;45234;48.148;17.128;2024-01-30T09:37:49;28.17;;;15.65;;
24739;SDS011;45234;48.148;17.128;2024-01-30T09:40:17;30.88;;;16.27;;
24739;SDS011;45234;48.148;17.128;2024-01-30T09:42:46;27.27;;;16.27;;
24739;SDS011;45234;48.148;17.128;2024-01-30T09:45:19;27.50;;;16.88;;
24739;SDS011;45234;48.148;17.128;2024-01-30T09:47:50;35.70;;;15.75;;
24739;SDS011;45234;48.148;17.128;2024-01-30T09:50:17;34.83;;;16.45;;
24739;SDS011;45234;48.148;17.128;2024-01-30T09:52:46;25.50;;;16.33;;
24739;SDS011;45234;48.148;17.128;2024-01-30T09:55:13;39.83;;;17.65;;
24739;SDS011;45234;48.148;17.128;2024-01-30T09:57:41;32.55;;;17.00;;
24739;SDS011;45234;48.148;17.128;2024-01-30T10:00:08;31.05;;;16.35;;
24739;SDS011;45234;48.148;17.128;2024-01-30T10:02:39;46.72;;;17.95;;
24739;SDS011;45234;48.148;17.128;2024-01-30T10:05:07;29.42;;;17.50;;
24739;SDS011;45234;48.148;17.128;2024-01-30T10:07:35;26.98;;;16.27;;
24739;SDS011;45234;48.148;17.128;2024-01-30T10:10:02;31.90;;;15.88;;
24739;SDS011;45234;48.148;17.128;2024-01-30T10:12:31;24.73;;;15.75;;
24739;SDS011;45234;48.148;17.128;2024-01-30T10:14:58;27.17;;;15.70;;
24739;SDS011;45234;48.148;17.128;2024-01-30T10:17:28;34.53;;;15.63;;
24739;SDS011;45234;48.148;17.128;2024-01-30T10:19:59;31.92;;;15.68;;
24739;SDS011;45234;48.148;17.128;2024-01-30T10:22:30;25.80;;;15.52;;
24739;SDS011;45234;48.148;17.128;2024-01-30T10:24:57;24.52;;;15.70;;
24739;SDS011;45234;48.148;17.128;2024-01-30T10:29:57;29.45;;;17.30;;
24739;SDS011;45234;48.148;17.128;2024-01-30T10:32:25;27.63;;;19.17;;
24739;SDS011;45234;48.148;17.128;2024-01-30T10:34:52;29.58;;;19.05;;
24739;SDS011;45234;48.148;17.128;2024-01-30T10:37:19;31.50;;;16.42;;
24739;SDS011;45234;48.148;17.128;2024-01-30T10:39:50;30.75;;;17.25;;
24739;SDS011;45234;48.148;17.128;2024-01-30T10:42:21;25.20;;;16.17;;
24739;SDS011;45234;48.148;17.128;2024-01-30T10:45:08;29.02;;;17.48;;
24739;SDS011;45234;48.148;17.128;2024-01-30T10:47:44;24.20;;;17.52;;
24739;SDS011;45234;48.148;17.128;2024-01-30T10:50:19;22.70;;;17.02;;
24739;SDS011;45234;48.148;17.128;2024-01-30T10:52:50;26.98;;;16.10;;
24739;SDS011;45234;48.148;17.128;2024-01-30T10:55:18;30.85;;;17.08;;
24739;SDS011;45234;48.148;17.128;2024-01-30T10:57:47;23.58;;;14.93;;
24739;SDS011;45234;48.148;17.128;2024-01-30T11:00:15;25.17;;;15.55;;
24739;SDS011;45234;48.148;17.128;2024-01-30T11:02:43;26.23;;;14.70;;
24739;SDS011;45234;48.148;17.128;2024-01-30T11:05:12;28.10;;;17.88;;
24739;SDS011;45234;48.148;17.128;2024-01-30T11:07:41;25.67;;;16.05;;
24739;SDS011;45234;48.148;17.128;2024-01-30T11:10:09;26.77;;;16.98;;
24739;SDS011;45234;48.148;17.128;2024-01-30T11:12:43;24.17;;;16.33;;
24739;SDS011;45234;48.148;17.128;2024-01-30T11:15:13;27.75;;;15.93;;
24739;SDS011;45234;48.148;17.128;2024-01-30T11:20:29;24.55;;;16.08;;
24739;SDS011;45234;48.148;17.128;2024-01-30T11:23:01;31.15;;;15.50;;
24739;SDS011;45234;48.148;17.128;2024-01-30T11:25:32;24.80;;;13.50;;
24739;SDS011;45234;48.148;17.128;2024-01-30T11:28:00;24.33;;;14.27;;
24739;SDS011;45234;48.148;17.128;2024-01-30T11:30:27;31.35;;;16.52;;
24739;SDS011;45234;48.148;17.128;2024-01-30T11:33:04;21.48;;;14.80;;
24739;SDS011;45234;48.148;17.128;2024-01-30T11:35:34;26.63;;;17.45;;
24739;SDS011;45234;48.148;17.128;2024-01-30T11:38:03;28.02;;;15.70;;
24739;SDS011;45234;48.148;17.128;2024-01-30T11:40:30;22.48;;;13.88;;
24739;SDS011;45234;48.148;17.128;2024-01-30T11:43:00;24.27;;;16.17;;
24739;SDS011;45234;48.148;17.128;2024-01-30T11:45:28;23.42;;;15.15;;
24739;SDS011;45234;48.148;17.128;2024-01-30T11:47:55;28.40;;;17.05;;
24739;SDS011;45234;48.148;17.128;2024-01-30T11:50:24;26.23;;;16.23;;
24739;SDS011;45234;48.148;17.128;2024-01-30T11:52:52;25.23;;;15.82;;
24739;SDS011;45234;48.148;17.128;2024-01-30T11:55:20;21.48;;;13.88;;
24739;SDS011;45234;48.148;17.128;2024-01-30T11:57:47;23.17;;;14.57;;
24739;SDS011;45234;48.148;17.128;2024-01-30T12:00:18;33.22;;;20.90;;
24739;SDS011;45234;48.148;17.128;2024-01-30T12:02:50;24.80;;;15.27;;
24739;SDS011;45234;48.148;17.128;2024-01-30T12:05:21;24.92;;;15.55;;
24739;SDS011;45234;48.148;17.128;2024-01-30T12:07:49;23.60;;;16.05;;
24739;SDS011;45234;48.148;17.128;2024-01-30T12:10:17;23.15;;;14.65;;
24739;SDS011;45234;48.148;17.128;2024-01-30T12:12:46;24.02;;;15.43;;
24739;SDS011;45234;48.148;17.128;2024-01-30T12:15:15;23.10;;;14.32;;
24739;SDS011;45234;48.148;17.128;2024-01-30T12:17:42;24.23;;;14.18;;
24739;SDS011;45234;48.148;17.128;2024-01-30T12:20:10;21.80;;;14.13;;
24739;SDS011;45234;48.148;17.128;2024-01-30T12:22:40;20.52;;;12.57;;
24739;SDS011;45234;48.148;17.128;2024-01-30T12:25:08;21.90;;;13.57;;
24739;SDS011;45234;48.148;17.128;2024-01-30T12:27:41;23.00;;;13.60;;
24739;SDS011;45234;48.148;17.128;2024-01-30T12:30:10;24.73;;;14.40;;
24739;SDS011;45234;48.148;17.128;2024-01-30T12:32:42;23.20;;;13.80;;
24739;SDS011;45234;48.148;17.128;2024-01-30T12:35:11;24.50;;;14.50;;
24739;SDS011;45234;48.148;17.128;2024-01-30T12:37:45;20.77;;;13.25;;
24739;SDS011;45234;48.148;17.128;2024-01-30T12:40:14;18.08;;;11.77;;
24739;SDS011;45234;48.148;17.128;2024-01-30T12:42:45;22.08;;;12.80;;
24739;SDS011;45234;48.148;17.128;2024-01-30T12:45:16;21.27;;;12.32;;
24739;SDS011;45234;48.148;17.128;2024-01-30T12:47:49;25.38;;;13.38;;
24739;SDS011;45234;48.148;17.128;2024-01-30T12:50:16;20.33;;;13.02;;
24739;SDS011;45234;48.148;17.128;2024-01-30T12:52:45;18.10;;;12.10;;
24739;SDS011;45234;48.148;17.128;2024-01-30T12:55:15;19.60;;;11.43;;
24739;SDS011;45234;48.148;17.128;2024-01-30T12:57:42;22.27;;;12.15;;
24739;SDS011;45234;48.148;17.128;2024-01-30T13:00:09;23.30;;;10.20;;
24739;SDS011;45234;48.148;17.128;2024-01-30T13:02:38;12.35;;;8.52;;
24739;SDS011;45234;48.148;17.128;2024-01-30T13:05:05;15.80;;;8.02;;
24739;SDS011;45234;48.148;17.128;2024-01-30T13:07:33;14.25;;;8.68;;
24739;SDS011;45234;48.148;17.128;2024-01-30T13:10:02;17.00;;;7.78;;
24739;SDS011;45234;48.148;17.128;2024-01-30T13:12:31;14.18;;;8.20;;
24739;SDS011;45234;48.148;17.128;2024-01-30T13:15:00;12.88;;;7.88;;
24739;SDS011;45234;48.148;17.128;2024-01-30T13:17:32;19.35;;;7.88;;
24739;SDS011;45234;48.148;17.128;2024-01-30T13:19:59;13.65;;;8.50;;
24739;SDS011;45234;48.148;17.128;2024-01-30T13:22:36;15.63;;;7.80;;
24739;SDS011;45234;48.148;17.128;2024-01-30T13:25:05;17.98;;;8.13;;
24739;SDS011;45234;48.148;17.128;2024-01-30T13:27:33;17.77;;;8.50;;
24739;SDS011;45234;48.148;17.128;2024-01-30T13:30:00;13.25;;;8.27;;
24739;SDS011;45234;48.148;17.128;2024-01-30T13:32:29;19.92;;;8.98;;
24739;SDS011;45234;48.148;17.128;2024-01-30T13:34:56;14.10;;;8.43;;
24739;SDS011;45234;48.148;17.128;2024-01-30T13:37:23;15.13;;;8.32;;
24739;SDS011;45234;48.148;17.128;2024-01-30T13:39:50;15.35;;;8.52;;
24739;SDS011;45234;48.148;17.128;2024-01-30T13:42:17;13.77;;;7.97;;
24739;SDS011;45234;48.148;17.128;2024-01-30T13:44:44;13.80;;;9.13;;
24739;SDS011;45234;48.148;17.128;2024-01-30T13:47:11;13.70;;;9.25;;
24739;SDS011;45234;48.148;17.128;2024-01-30T13:49:38;16.70;;;9.32;;
24739;SDS011;45234;48.148;17.128;2024-01-30T13:52:05;14.10;;;8.15;;
24739;SDS011;45234;48.148;17.128;2024-01-30T13:54:32;18.85;;;8.63;;
24739;SDS011;45234;48.148;17.128;2024-01-30T13:56:59;13.60;;;8.60;;
24739;SDS011;45234;48.148;17.128;2024-01-30T13:59:26;14.15;;;8.40;;
24739;SDS011;45234;48.148;17.128;2024-01-30T14:01:53;15.52;;;8.65;;
24739;SDS011;45234;48.148;17.128;2024-01-30T14:04:20;16.73;;;8.82;;
24739;SDS011;45234;48.148;17.128;2024-01-30T14:06:47;20.63;;;9.80;;
24739;SDS011;45234;48.148;17.128;2024-01-30T14:09:25;22.55;;;10.73;;
24739;SDS011;45234;48.148;17.128;2024-01-30T14:11:52;19.75;;;11.35;;
24739;SDS011;45234;48.148;17.128;2024-01-30T14:14:19;19.95;;;12.63;;
24739;SDS011;45234;48.148;17.128;2024-01-30T14:16:46;20.80;;;13.10;;
24739;SDS011;45234;48.148;17.128;2024-01-30T14:19:13;16.52;;;11.30;;
24739;SDS011;45234;48.148;17.128;2024-01-30T14:21:40;18.98;;;11.90;;